createdAt,value
2019-04-22T00:15:42.414Z,21.94
2019-04-22T00:35:54.488Z,22.70
2019-04-22T00:56:00.340Z,22.85
2019-04-22T01:16:17.479Z,23.00
2019-04-22T01:36:19.747Z,23.94
2019-04-22T01:56:36.476Z,23.73
2019-04-22T02:16:49.797Z,23.19
2019-04-22T02:36:41.420Z,24.81
2019-04-22T03:17:11.005Z,24.79
2019-04-22T03:57:44.812Z,29.92
2019-04-22T04:17:41.420Z,27.35
2019-04-22T04:37:52.105Z,27.57
2019-04-22T04:58:04.128Z,29.84
2019-04-22T05:17:52.795Z,29.40
2019-04-22T05:38:11.238Z,30.52
2019-04-22T05:58:18.453Z,28.42
2019-04-22T06:18:16.145Z,29.25
2019-04-22T06:38:40.299Z,25.02
2019-04-22T06:58:34.988Z,24.91
2019-04-22T07:18:49.838Z,23.28
2019-04-22T07:38:42.837Z,24.58
2019-04-22T07:58:58.811Z,24.67
2019-04-22T08:19:15.749Z,26.16
2019-04-22T08:39:13.629Z,20.08
2019-04-22T08:59:11.004Z,18.46
2019-04-22T09:19:27.330Z,17.62
2019-04-22T09:39:34.195Z,16.73
2019-04-22T10:39:43.879Z,16.89
2019-04-22T10:59:46.858Z,17.11
2019-04-22T11:19:55.386Z,17.05
2019-04-22T11:40:11.366Z,17.50
2019-04-22T12:00:14.707Z,18.52
2019-04-22T12:20:21.769Z,17.53
2019-04-22T12:40:38.248Z,19.38
2019-04-22T13:00:40.402Z,17.44
2019-04-22T13:20:48.666Z,20.64
2019-04-22T13:41:07.110Z,21.38
2019-04-22T14:01:10.238Z,19.50
2019-04-22T14:21:09.135Z,20.68
2019-04-22T14:41:35.752Z,20.79
2019-04-22T15:01:26.674Z,21.49
2019-04-22T15:21:34.995Z,20.59
2019-04-22T15:41:55.490Z,20.67
2019-04-22T16:02:00.111Z,23.29
2019-04-22T16:21:59.314Z,22.62
2019-04-22T16:42:06.753Z,24.45
2019-04-22T17:02:04.644Z,23.89
2019-04-22T17:22:15.476Z,25.40
2019-04-22T17:42:40.789Z,27.71
2019-04-22T18:02:50.899Z,26.12
2019-04-22T18:22:41.821Z,27.28
2019-04-22T18:43:03.704Z,25.87
2019-04-22T19:02:56.967Z,27.30
2019-04-22T19:23:22.733Z,28.20
2019-04-22T19:43:30.840Z,24.69
2019-04-22T20:03:36.669Z,27.26
2019-04-22T20:23:38.184Z,25.22
2019-04-22T20:43:54.680Z,24.73
2019-04-22T21:03:33.280Z,23.56
2019-04-22T21:23:48.563Z,26.28
2019-04-22T21:44:07.557Z,28.50
2019-04-22T22:04:05.038Z,27.07
2019-04-22T22:24:14.829Z,33.25
2019-04-22T22:44:18.537Z,31.38
2019-04-22T23:04:41.063Z,33.20
2019-04-22T23:24:45.801Z,35.55
